sensor_id;sensor_type;location;lat;lon;timestamp;P1;durP1;ratioP1;P2;durP2;ratioP2
35877;SDS011;21982;49.804;24.072;2022-07-17T00:01:44;3.53;;;1.48;;
35877;SDS011;21982;49.804;24.072;2022-07-17T00:04:10;5.60;;;1.67;;
35877;SDS011;21982;49.804;24.072;2022-07-17T00:06:36;3.22;;;1.48;;
35877;SDS011;21982;49.804;24.072;2022-07-17T00:09:01;3.55;;;1.70;;
35877;SDS011;21982;49.804;24.072;2022-07-17T00:11:27;3.20;;;1.73;;
35877;SDS011;21982;49.804;24.072;2022-07-17T00:13:54;4.82;;;1.92;;
35877;SDS011;21982;49.804;24.072;2022-07-17T00:16:20;3.95;;;1.90;;
35877;SDS011;21982;49.804;24.072;2022-07-17T00:18:46;4.07;;;1.75;;
35877;SDS011;21982;49.804;24.072;2022-07-17T00:21:11;5.18;;;2.30;;
35877;SDS011;21982;49.804;24.072;2022-07-17T00:23:37;3.35;;;1.95;;
35877;SDS011;21982;49.804;24.072;2022-07-17T00:26:04;3.00;;;1.75;;
35877;SDS011;21982;49.804;24.072;2022-07-17T00:28:30;7.07;;;2.30;;
35877;SDS011;21982;49.804;24.072;2022-07-17T00:30:56;6.40;;;3.00;;
35877;SDS011;21982;49.804;24.072;2022-07-17T00:33:21;6.38;;;3.70;;
35877;SDS011;21982;49.804;24.072;2022-07-17T00:35:47;5.50;;;3.58;;
35877;SDS011;21982;49.804;24.072;2022-07-17T00:38:13;4.72;;;2.60;;
35877;SDS011;21982;49.804;24.072;2022-07-17T00:40:40;4.95;;;2.63;;
35877;SDS011;21982;49.804;24.072;2022-07-17T00:43:05;5.57;;;2.28;;
35877;SDS011;21982;49.804;24.072;2022-07-17T00:45:31;5.85;;;2.22;;
35877;SDS011;21982;49.804;24.072;2022-07-17T00:50:28;4.10;;;2.33;;
35877;SDS011;21982;49.804;24.072;2022-07-17T00:52:55;6.28;;;2.88;;
35877;SDS011;21982;49.804;24.072;2022-07-17T00:55:21;4.43;;;2.38;;
35877;SDS011;21982;49.804;24.072;2022-07-17T00:57:48;5.75;;;2.70;;
35877;SDS011;21982;49.804;24.072;2022-07-17T01:00:15;5.90;;;2.45;;
35877;SDS011;21982;49.804;24.072;2022-07-17T01:02:44;5.57;;;2.45;;
35877;SDS011;21982;49.804;24.072;2022-07-17T01:05:11;4.10;;;2.30;;
35877;SDS011;21982;49.804;24.072;2022-07-17T01:07:36;5.25;;;2.50;;
35877;SDS011;21982;49.804;24.072;2022-07-17T01:10:02;5.25;;;2.40;;
35877;SDS011;21982;49.804;24.072;2022-07-17T01:12:27;6.13;;;2.67;;
35877;SDS011;21982;49.804;24.072;2022-07-17T01:14:55;4.25;;;2.17;;
35877;SDS011;21982;49.804;24.072;2022-07-17T01:17:22;6.45;;;2.55;;
35877;SDS011;21982;49.804;24.072;2022-07-17T01:19:47;7.57;;;2.70;;
35877;SDS011;21982;49.804;24.072;2022-07-17T01:22:13;5.45;;;2.88;;
35877;SDS011;21982;49.804;24.072;2022-07-17T01:24:39;4.45;;;2.55;;
35877;SDS011;21982;49.804;24.072;2022-07-17T01:27:05;5.50;;;2.55;;
35877;SDS011;21982;49.804;24.072;2022-07-17T01:29:31;3.58;;;2.40;;
35877;SDS011;21982;49.804;24.072;2022-07-17T01:31:56;5.35;;;2.53;;
35877;SDS011;21982;49.804;24.072;2022-07-17T01:34:22;5.10;;;2.40;;
35877;SDS011;21982;49.804;24.072;2022-07-17T01:36:47;7.40;;;2.47;;
35877;SDS011;21982;49.804;24.072;2022-07-17T01:39:13;4.28;;;2.28;;
35877;SDS011;21982;49.804;24.072;2022-07-17T01:41:38;4.18;;;2.67;;
35877;SDS011;21982;49.804;24.072;2022-07-17T01:44:04;7.10;;;3.10;;
35877;SDS011;21982;49.804;24.072;2022-07-17T01:46:31;3.55;;;2.28;;
35877;SDS011;21982;49.804;24.072;2022-07-17T01:48:57;3.40;;;2.05;;
35877;SDS011;21982;49.804;24.072;2022-07-17T01:51:22;5.22;;;2.55;;
35877;SDS011;21982;49.804;24.072;2022-07-17T01:53:47;6.55;;;2.63;;
35877;SDS011;21982;49.804;24.072;2022-07-17T01:56:13;8.27;;;2.72;;
35877;SDS011;21982;49.804;24.072;2022-07-17T01:58:38;4.97;;;2.42;;
35877;SDS011;21982;49.804;24.072;2022-07-17T02:01:04;6.22;;;2.85;;
35877;SDS011;21982;49.804;24.072;2022-07-17T02:03:29;5.00;;;2.58;;
35877;SDS011;21982;49.804;24.072;2022-07-17T02:05:55;4.40;;;2.85;;
35877;SDS011;21982;49.804;24.072;2022-07-17T02:08:20;5.30;;;2.80;;
35877;SDS011;21982;49.804;24.072;2022-07-17T02:10:46;7.13;;;3.03;;
35877;SDS011;21982;49.804;24.072;2022-07-17T02:13:11;5.60;;;2.60;;
35877;SDS011;21982;49.804;24.072;2022-07-17T02:15:37;5.00;;;2.42;;
35877;SDS011;21982;49.804;24.072;2022-07-17T02:18:03;6.03;;;2.33;;
35877;SDS011;21982;49.804;24.072;2022-07-17T02:20:28;5.43;;;2.53;;
35877;SDS011;21982;49.804;24.072;2022-07-17T02:22:54;3.75;;;2.45;;
35877;SDS011;21982;49.804;24.072;2022-07-17T02:25:20;7.13;;;2.30;;
35877;SDS011;21982;49.804;24.072;2022-07-17T02:27:45;6.30;;;2.50;;
35877;SDS011;21982;49.804;24.072;2022-07-17T02:30:15;5.20;;;2.60;;
35877;SDS011;21982;49.804;24.072;2022-07-17T02:32:42;5.97;;;2.75;;
35877;SDS011;21982;49.804;24.072;2022-07-17T02:35:08;7.82;;;2.95;;
35877;SDS011;21982;49.804;24.072;2022-07-17T02:37:35;6.55;;;2.20;;
35877;SDS011;21982;49.804;24.072;2022-07-17T02:40:01;5.95;;;2.60;;
35877;SDS011;21982;49.804;24.072;2022-07-17T02:42:29;3.70;;;2.05;;
35877;SDS011;21982;49.804;24.072;2022-07-17T02:44:55;5.28;;;2.20;;
35877;SDS011;21982;49.804;24.072;2022-07-17T02:47:21;5.22;;;2.40;;
35877;SDS011;21982;49.804;24.072;2022-07-17T02:49:50;4.53;;;2.60;;
35877;SDS011;21982;49.804;24.072;2022-07-17T02:52:16;5.38;;;2.45;;
35877;SDS011;21982;49.804;24.072;2022-07-17T02:54:42;4.75;;;2.70;;
35877;SDS011;21982;49.804;24.072;2022-07-17T02:57:07;3.58;;;2.13;;
35877;SDS011;21982;49.804;24.072;2022-07-17T02:59:33;3.95;;;2.13;;
35877;SDS011;21982;49.804;24.072;2022-07-17T03:01:59;4.03;;;2.33;;
35877;SDS011;21982;49.804;24.072;2022-07-17T03:04:24;5.50;;;2.50;;
35877;SDS011;21982;49.804;24.072;2022-07-17T03:06:50;3.00;;;1.65;;
35877;SDS011;21982;49.804;24.072;2022-07-17T03:09:15;4.95;;;2.03;;
35877;SDS011;21982;49.804;24.072;2022-07-17T03:11:41;3.50;;;2.05;;
35877;SDS011;21982;49.804;24.072;2022-07-17T03:14:06;3.67;;;2.17;;
35877;SDS011;21982;49.804;24.072;2022-07-17T03:16:32;3.30;;;2.10;;
35877;SDS011;21982;49.804;24.072;2022-07-17T03:18:57;4.53;;;1.85;;
35877;SDS011;21982;49.804;24.072;2022-07-17T03:21:22;2.72;;;1.60;;
35877;SDS011;21982;49.804;24.072;2022-07-17T03:23:48;5.70;;;3.15;;
35877;SDS011;21982;49.804;24.072;2022-07-17T03:26:14;19.50;;;3.10;;
35877;SDS011;21982;49.804;24.072;2022-07-17T03:28:39;5.07;;;1.90;;
35877;SDS011;21982;49.804;24.072;2022-07-17T03:31:05;7.15;;;2.10;;
35877;SDS011;21982;49.804;24.072;2022-07-17T03:33:30;7.78;;;2.03;;
35877;SDS011;21982;49.804;24.072;2022-07-17T03:35:56;5.13;;;2.72;;
35877;SDS011;21982;49.804;24.072;2022-07-17T03:38:21;5.00;;;2.25;;
35877;SDS011;21982;49.804;24.072;2022-07-17T03:40:47;4.00;;;2.22;;
35877;SDS011;21982;49.804;24.072;2022-07-17T03:43:12;4.82;;;1.80;;
35877;SDS011;21982;49.804;24.072;2022-07-17T03:45:39;5.88;;;2.28;;
35877;SDS011;21982;49.804;24.072;2022-07-17T03:48:05;6.40;;;1.90;;
35877;SDS011;21982;49.804;24.072;2022-07-17T03:50:30;4.35;;;1.88;;
35877;SDS011;21982;49.804;24.072;2022-07-17T03:52:56;4.68;;;2.08;;
35877;SDS011;21982;49.804;24.072;2022-07-17T03:55:22;4.63;;;1.95;;
35877;SDS011;21982;49.804;24.072;2022-07-17T03:57:47;4.50;;;1.75;;
35877;SDS011;21982;49.804;24.072;2022-07-17T04:00:13;3.55;;;1.83;;
35877;SDS011;21982;49.804;24.072;2022-07-17T04:02:40;7.38;;;2.00;;
35877;SDS011;21982;49.804;24.072;2022-07-17T04:05:05;4.63;;;2.05;;
35877;SDS011;21982;49.804;24.072;2022-07-17T04:07:35;5.20;;;2.17;;
35877;SDS011;21982;49.804;24.072;2022-07-17T04:10:02;8.48;;;3.83;;
35877;SDS011;21982;49.804;24.072;2022-07-17T04:12:29;5.72;;;1.88;;
35877;SDS011;21982;49.804;24.072;2022-07-17T04:14:55;4.90;;;1.88;;
35877;SDS011;21982;49.804;24.072;2022-07-17T04:17:20;4.28;;;1.70;;
35877;SDS011;21982;49.804;24.072;2022-07-17T04:19:46;5.13;;;1.88;;
35877;SDS011;21982;49.804;24.072;2022-07-17T04:22:12;5.97;;;1.58;;
35877;SDS011;21982;49.804;24.072;2022-07-17T04:24:37;5.40;;;1.65;;
35877;SDS011;21982;49.804;24.072;2022-07-17T04:27:03;8.02;;;2.00;;
35877;SDS011;21982;49.804;24.072;2022-07-17T04:29:30;5.30;;;1.63;;
35877;SDS011;21982;49.804;24.072;2022-07-17T04:31:57;3.33;;;1.55;;
35877;SDS011;21982;49.804;24.072;2022-07-17T04:34:23;2.17;;;1.52;;
35877;SDS011;21982;49.804;24.072;2022-07-17T04:36:49;3.53;;;1.60;;
35877;SDS011;21982;49.804;24.072;2022-07-17T04:39:15;4.20;;;1.75;;
35877;SDS011;21982;49.804;24.072;2022-07-17T04:41:40;4.40;;;1.70;;
35877;SDS011;21982;49.804;24.072;2022-07-17T04:44:06;4.00;;;1.70;;
35877;SDS011;21982;49.804;24.072;2022-07-17T04:46:31;3.35;;;1.77;;
35877;SDS011;21982;49.804;24.072;2022-07-17T04:48:57;4.65;;;1.50;;
35877;SDS011;21982;49.804;24.072;2022-07-17T04:51:22;3.70;;;1.92;;
35877;SDS011;21982;49.804;24.072;2022-07-17T04:53:50;4.85;;;1.88;;
35877;SDS011;21982;49.804;24.072;2022-07-17T04:56:16;6.65;;;1.88;;
35877;SDS011;21982;49.804;24.072;2022-07-17T04:58:42;5.90;;;1.27;;
35877;SDS011;21982;49.804;24.072;2022-07-17T05:01:07;5.50;;;1.45;;
35877;SDS011;21982;49.804;24.072;2022-07-17T05:03:33;3.25;;;1.60;;
35877;SDS011;21982;49.804;24.072;2022-07-17T05:05:58;4.53;;;1.70;;
35877;SDS011;21982;49.804;24.072;2022-07-17T05:08:23;4.63;;;1.77;;
35877;SDS011;21982;49.804;24.072;2022-07-17T05:10:49;4.65;;;1.85;;
35877;SDS011;21982;49.804;24.072;2022-07-17T05:13:14;11.60;;;2.13;;
35877;SDS011;21982;49.804;24.072;2022-07-17T05:15:40;5.18;;;2.20;;
35877;SDS011;21982;49.804;24.072;2022-07-17T05:18:05;4.95;;;2.13;;
35877;SDS011;21982;49.804;24.072;2022-07-17T05:20:31;3.85;;;1.25;;
35877;SDS011;21982;49.804;24.072;2022-07-17T05:22:57;3.90;;;1.45;;
35877;SDS011;21982;49.804;24.072;2022-07-17T05:25:22;2.17;;;1.23;;
35877;SDS011;21982;49.804;24.072;2022-07-17T05:27:48;8.40;;;1.73;;
35877;SDS011;21982;49.804;24.072;2022-07-17T05:30:13;3.63;;;1.48;;
35877;SDS011;21982;49.804;24.072;2022-07-17T05:32:39;3.20;;;1.50;;
35877;SDS011;21982;49.804;24.072;2022-07-17T05:35:04;4.75;;;2.08;;
35877;SDS011;21982;49.804;24.072;2022-07-17T05:37:30;3.70;;;1.67;;
35877;SDS011;21982;49.804;24.072;2022-07-17T05:39:56;3.78;;;1.85;;
35877;SDS011;21982;49.804;24.072;2022-07-17T05:42:21;4.53;;;1.95;;
35877;SDS011;21982;49.804;24.072;2022-07-17T05:44:47;4.22;;;1.90;;
35877;SDS011;21982;49.804;24.072;2022-07-17T05:47:12;5.90;;;1.60;;
35877;SDS011;21982;49.804;24.072;2022-07-17T05:49:38;5.90;;;1.65;;
35877;SDS011;21982;49.804;24.072;2022-07-17T05:52:03;4.00;;;1.98;;
35877;SDS011;21982;49.804;24.072;2022-07-17T05:54:29;5.22;;;2.15;;
35877;SDS011;21982;49.804;24.072;2022-07-17T05:56:55;4.28;;;1.77;;
35877;SDS011;21982;49.804;24.072;2022-07-17T05:59:20;3.25;;;1.83;;
35877;SDS011;21982;49.804;24.072;2022-07-17T06:01:45;3.30;;;1.63;;
35877;SDS011;21982;49.804;24.072;2022-07-17T06:04:11;3.55;;;1.67;;
35877;SDS011;21982;49.804;24.072;2022-07-17T06:06:36;3.28;;;1.70;;
35877;SDS011;21982;49.804;24.072;2022-07-17T06:09:02;5.13;;;1.80;;
35877;SDS011;21982;49.804;24.072;2022-07-17T06:11:27;4.30;;;1.60;;
35877;SDS011;21982;49.804;24.072;2022-07-17T06:13:53;5.55;;;2.10;;
35877;SDS011;21982;49.804;24.072;2022-07-17T06:16:18;5.85;;;1.85;;
35877;SDS011;21982;49.804;24.072;2022-07-17T06:18:44;2.75;;;1.42;;
35877;SDS011;21982;49.804;24.072;2022-07-17T06:21:09;2.95;;;0.88;;
35877;SDS011;21982;49.804;24.072;2022-07-17T06:23:38;4.32;;;1.20;;
35877;SDS011;21982;49.804;24.072;2022-07-17T06:26:12;3.15;;;1.42;;
35877;SDS011;21982;49.804;24.072;2022-07-17T06:28:40;2.15;;;0.93;;
35877;SDS011;21982;49.804;24.072;2022-07-17T06:31:06;4.43;;;1.38;;
35877;SDS011;21982;49.804;24.072;2022-07-17T06:33:31;3.58;;;1.45;;
35877;SDS011;21982;49.804;24.072;2022-07-17T06:35:57;3.63;;;1.25;;
35877;SDS011;21982;49.804;24.072;2022-07-17T06:38:22;5.00;;;1.10;;
35877;SDS011;21982;49.804;24.072;2022-07-17T06:40:48;4.70;;;1.38;;
35877;SDS011;21982;49.804;24.072;2022-07-17T06:43:17;2.90;;;1.13;;
35877;SDS011;21982;49.804;24.072;2022-07-17T06:45:42;2.80;;;1.20;;
35877;SDS011;21982;49.804;24.072;2022-07-17T06:48:08;2.80;;;1.20;;
35877;SDS011;21982;49.804;24.072;2022-07-17T06:50:38;4.30;;;1.27;;
35877;SDS011;21982;49.804;24.072;2022-07-17T06:53:07;5.22;;;2.22;;
35877;SDS011;21982;49.804;24.072;2022-07-17T06:55:32;3.72;;;1.33;;
35877;SDS011;21982;49.804;24.072;2022-07-17T06:57:58;1.58;;;1.08;;
35877;SDS011;21982;49.804;24.072;2022-07-17T07:00:26;2.28;;;1.13;;
35877;SDS011;21982;49.804;24.072;2022-07-17T07:02:55;3.10;;;1.20;;
35877;SDS011;21982;49.804;24.072;2022-07-17T07:05:23;3.55;;;1.38;;
35877;SDS011;21982;49.804;24.072;2022-07-17T07:07:53;3.42;;;1.00;;
35877;SDS011;21982;49.804;24.072;2022-07-17T07:10:25;3.30;;;1.08;;
35877;SDS011;21982;49.804;24.072;2022-07-17T07:12:51;2.83;;;0.88;;
35877;SDS011;21982;49.804;24.072;2022-07-17T07:15:16;1.70;;;0.80;;
35877;SDS011;21982;49.804;24.072;2022-07-17T07:17:45;2.33;;;0.90;;
35877;SDS011;21982;49.804;24.072;2022-07-17T07:20:13;2.03;;;0.73;;
35877;SDS011;21982;49.804;24.072;2022-07-17T07:22:39;3.33;;;0.80;;
35877;SDS011;21982;49.804;24.072;2022-07-17T07:25:05;1.30;;;0.65;;
35877;SDS011;21982;49.804;24.072;2022-07-17T07:27:51;4.20;;;0.85;;
35877;SDS011;21982;49.804;24.072;2022-07-17T07:30:17;1.95;;;1.00;;
35877;SDS011;21982;49.804;24.072;2022-07-17T07:32:42;1.60;;;0.88;;
35877;SDS011;21982;49.804;24.072;2022-07-17T07:35:10;5.90;;;1.02;;
35877;SDS011;21982;49.804;24.072;2022-07-17T07:37:37;2.65;;;0.88;;
35877;SDS011;21982;49.804;24.072;2022-07-17T07:40:04;2.83;;;0.90;;
35877;SDS011;21982;49.804;24.072;2022-07-17T07:42:51;4.78;;;1.30;;
35877;SDS011;21982;49.804;24.072;2022-07-17T07:45:17;3.67;;;0.98;;
35877;SDS011;21982;49.804;24.072;2022-07-17T07:47:43;4.05;;;1.00;;
35877;SDS011;21982;49.804;24.072;2022-07-17T07:50:13;1.80;;;0.90;;
35877;SDS011;21982;49.804;24.072;2022-07-17T07:52:39;7.28;;;1.50;;
35877;SDS011;21982;49.804;24.072;2022-07-17T07:55:05;7.03;;;1.42;;
35877;SDS011;21982;49.804;24.072;2022-07-17T07:57:31;2.60;;;0.80;;
35877;SDS011;21982;49.804;24.072;2022-07-17T07:59:56;2.50;;;0.95;;
35877;SDS011;21982;49.804;24.072;2022-07-17T08:02:22;2.00;;;0.70;;
35877;SDS011;21982;49.804;24.072;2022-07-17T08:04:47;2.70;;;1.05;;
35877;SDS011;21982;49.804;24.072;2022-07-17T08:07:12;2.08;;;1.02;;
35877;SDS011;21982;49.804;24.072;2022-07-17T08:09:38;2.20;;;1.30;;
35877;SDS011;21982;49.804;24.072;2022-07-17T08:12:04;3.28;;;1.10;;
35877;SDS011;21982;49.804;24.072;2022-07-17T08:14:29;2.28;;;1.15;;
35877;SDS011;21982;49.804;24.072;2022-07-17T08:16:55;4.38;;;0.82;;
35877;SDS011;21982;49.804;24.072;2022-07-17T08:19:20;2.90;;;0.90;;
35877;SDS011;21982;49.804;24.072;2022-07-17T08:21:46;3.78;;;0.98;;
35877;SDS011;21982;49.804;24.072;2022-07-17T08:24:11;2.30;;;1.20;;
35877;SDS011;21982;49.804;24.072;2022-07-17T08:26:36;2.22;;;1.00;;
35877;SDS011;21982;49.804;24.072;2022-07-17T08:29:02;0.80;;;0.60;;
35877;SDS011;21982;49.804;24.072;2022-07-17T08:31:28;1.88;;;0.70;;
35877;SDS011;21982;49.804;24.072;2022-07-17T08:33:53;5.10;;;1.10;;
35877;SDS011;21982;49.804;24.072;2022-07-17T08:36:19;0.77;;;0.40;;
35877;SDS011;21982;49.804;24.072;2022-07-17T08:38:44;4.07;;;1.30;;
35877;SDS011;21982;49.804;24.072;2022-07-17T08:41:10;1.27;;;0.50;;
35877;SDS011;21982;49.804;24.072;2022-07-17T08:43:35;3.45;;;0.82;;
35877;SDS011;21982;49.804;24.072;2022-07-17T08:46:01;2.03;;;0.70;;
35877;SDS011;21982;49.804;24.072;2022-07-17T08:48:27;2.45;;;0.98;;
35877;SDS011;21982;49.804;24.072;2022-07-17T08:50:53;2.25;;;0.82;;
35877;SDS011;21982;49.804;24.072;2022-07-17T08:53:21;1.73;;;0.90;;
35877;SDS011;21982;49.804;24.072;2022-07-17T08:55:47;1.45;;;0.70;;
35877;SDS011;21982;49.804;24.072;2022-07-17T08:58:16;2.58;;;0.63;;
35877;SDS011;21982;49.804;24.072;2022-07-17T09:00:42;1.83;;;0.95;;
35877;SDS011;21982;49.804;24.072;2022-07-17T09:03:07;2.67;;;0.65;;
35877;SDS011;21982;49.804;24.072;2022-07-17T09:05:35;2.25;;;0.70;;
35877;SDS011;21982;49.804;24.072;2022-07-17T09:08:02;4.32;;;0.75;;
35877;SDS011;21982;49.804;24.072;2022-07-17T09:10:33;2.38;;;0.95;;
35877;SDS011;21982;49.804;24.072;2022-07-17T09:13:01;3.67;;;0.77;;
35877;SDS011;21982;49.804;24.072;2022-07-17T09:15:37;4.07;;;0.80;;
35877;SDS011;21982;49.804;24.072;2022-07-17T09:18:03;3.75;;;0.70;;
35877;SDS011;21982;49.804;24.072;2022-07-17T09:20:28;2.38;;;0.57;;
35877;SDS011;21982;49.804;24.072;2022-07-17T09:23:01;2.13;;;0.65;;
35877;SDS011;21982;49.804;24.072;2022-07-17T09:25:33;1.75;;;0.50;;
35877;SDS011;21982;49.804;24.072;2022-07-17T09:28:10;5.80;;;0.68;;
35877;SDS011;21982;49.804;24.072;2022-07-17T09:30:38;3.00;;;0.85;;
35877;SDS011;21982;49.804;24.072;2022-07-17T09:33:06;2.17;;;0.57;;
35877;SDS011;21982;49.804;24.072;2022-07-17T09:35:33;1.95;;;0.98;;
35877;SDS011;21982;49.804;24.072;2022-07-17T09:38:05;2.05;;;0.70;;
35877;SDS011;21982;49.804;24.072;2022-07-17T09:40:33;3.42;;;0.77;;
35877;SDS011;21982;49.804;24.072;2022-07-17T09:43:27;2.33;;;0.75;;
35877;SDS011;21982;49.804;24.072;2022-07-17T09:46:07;4.05;;;0.70;;
35877;SDS011;21982;49.804;24.072;2022-07-17T09:48:47;3.90;;;0.82;;
35877;SDS011;21982;49.804;24.072;2022-07-17T09:51:20;2.08;;;0.70;;
35877;SDS011;21982;49.804;24.072;2022-07-17T09:54:01;2.55;;;0.65;;
35877;SDS011;21982;49.804;24.072;2022-07-17T09:56:32;2.50;;;1.00;;
35877;SDS011;21982;49.804;24.072;2022-07-17T09:59:10;5.80;;;1.25;;
35877;SDS011;21982;49.804;24.072;2022-07-17T10:01:42;3.33;;;0.90;;
35877;SDS011;21982;49.804;24.072;2022-07-17T10:04:16;1.95;;;0.60;;
35877;SDS011;21982;49.804;24.072;2022-07-17T10:06:50;2.17;;;0.70;;
35877;SDS011;21982;49.804;24.072;2022-07-17T10:09:16;2.67;;;0.77;;
35877;SDS011;21982;49.804;24.072;2022-07-17T10:11:45;1.98;;;0.73;;
35877;SDS011;21982;49.804;24.072;2022-07-17T10:14:15;1.52;;;0.70;;
35877;SDS011;21982;49.804;24.072;2022-07-17T10:16:50;1.77;;;0.75;;
35877;SDS011;21982;49.804;24.072;2022-07-17T10:19:18;3.05;;;0.50;;
35877;SDS011;21982;49.804;24.072;2022-07-17T10:21:55;2.20;;;1.02;;
35877;SDS011;21982;49.804;24.072;2022-07-17T10:24:26;2.15;;;0.50;;
35877;SDS011;21982;49.804;24.072;2022-07-17T10:26:58;4.28;;;0.57;;
35877;SDS011;21982;49.804;24.072;2022-07-17T10:31:58;4.00;;;0.67;;
35877;SDS011;21982;49.804;24.072;2022-07-17T10:34:44;1.40;;;0.60;;
35877;SDS011;21982;49.804;24.072;2022-07-17T10:43:13;3.53;;;0.52;;
35877;SDS011;21982;49.804;24.072;2022-07-17T10:50:32;1.17;;;0.63;;
35877;SDS011;21982;49.804;24.072;2022-07-17T10:53:02;0.65;;;0.40;;
35877;SDS011;21982;49.804;24.072;2022-07-17T10:55:36;4.07;;;0.63;;
35877;SDS011;21982;49.804;24.072;2022-07-17T10:58:21;2.65;;;1.27;;
35877;SDS011;21982;49.804;24.072;2022-07-17T11:00:56;5.45;;;0.60;;
35877;SDS011;21982;49.804;24.072;2022-07-17T11:06:23;5.05;;;0.60;;
35877;SDS011;21982;49.804;24.072;2022-07-17T11:08:53;0.80;;;0.60;;
35877;SDS011;21982;49.804;24.072;2022-07-17T11:11:34;1.27;;;0.60;;
35877;SDS011;21982;49.804;24.072;2022-07-17T11:14:13;1.55;;;0.30;;
35877;SDS011;21982;49.804;24.072;2022-07-17T11:16:47;3.08;;;0.70;;
35877;SDS011;21982;49.804;24.072;2022-07-17T11:21:53;4.13;;;1.45;;
35877;SDS011;21982;49.804;24.072;2022-07-17T11:24:19;1.15;;;0.60;;
35877;SDS011;21982;49.804;24.072;2022-07-17T11:26:48;1.17;;;0.50;;
35877;SDS011;21982;49.804;24.072;2022-07-17T11:29:15;0.82;;;0.55;;
35877;SDS011;21982;49.804;24.072;2022-07-17T11:31:41;1.77;;;0.65;;
35877;SDS011;21982;49.804;24.072;2022-07-17T11:34:08;3.25;;;0.55;;
35877;SDS011;21982;49.804;24.072;2022-07-17T11:36:37;1.15;;;0.50;;
35877;SDS011;21982;49.804;24.072;2022-07-17T11:39:05;2.83;;;0.52;;
35877;SDS011;21982;49.804;24.072;2022-07-17T11:44:16;2.35;;;0.70;;
35877;SDS011;21982;49.804;24.072;2022-07-17T11:46:43;2.05;;;0.70;;
35877;SDS011;21982;49.804;24.072;2022-07-17T11:49:10;3.88;;;0.60;;
35877;SDS011;21982;49.804;24.072;2022-07-17T11:51:37;1.85;;;0.70;;
35877;SDS011;21982;49.804;24.072;2022-07-17T11:54:09;2.20;;;0.60;;
35877;SDS011;21982;49.804;24.072;2022-07-17T11:56:39;1.45;;;0.35;;
35877;SDS011;21982;49.804;24.072;2022-07-17T11:59:06;1.55;;;0.63;;
35877;SDS011;21982;49.804;24.072;2022-07-17T12:01:39;1.88;;;0.73;;
35877;SDS011;21982;49.804;24.072;2022-07-17T12:04:06;2.40;;;0.60;;
35877;SDS011;21982;49.804;24.072;2022-07-17T12:06:32;2.85;;;1.10;;
35877;SDS011;21982;49.804;24.072;2022-07-17T12:08:58;2.00;;;0.60;;
35877;SDS011;21982;49.804;24.072;2022-07-17T12:11:23;2.05;;;0.77;;
35877;SDS011;21982;49.804;24.072;2022-07-17T12:13:49;2.28;;;1.08;;
35877;SDS011;21982;49.804;24.072;2022-07-17T12:19:34;4.55;;;1.00;;
35877;SDS011;21982;49.804;24.072;2022-07-17T12:24:31;3.88;;;0.70;;
35877;SDS011;21982;49.804;24.072;2022-07-17T12:27:01;0.98;;;0.43;;
35877;SDS011;21982;49.804;24.072;2022-07-17T12:29:28;1.67;;;0.70;;
35877;SDS011;21982;49.804;24.072;2022-07-17T12:32:27;1.85;;;0.55;;
35877;SDS011;21982;49.804;24.072;2022-07-17T12:34:47;2.03;;;0.57;;
35877;SDS011;21982;49.804;24.072;2022-07-17T12:37:18;1.52;;;0.60;;
35877;SDS011;21982;49.804;24.072;2022-07-17T12:39:46;1.48;;;0.88;;
35877;SDS011;21982;49.804;24.072;2022-07-17T12:42:13;2.25;;;0.70;;
35877;SDS011;21982;49.804;24.072;2022-07-17T12:44:47;2.47;;;0.60;;
35877;SDS011;21982;49.804;24.072;2022-07-17T12:47:17;1.08;;;0.75;;
35877;SDS011;21982;49.804;24.072;2022-07-17T12:49:42;0.65;;;0.40;;
35877;SDS011;21982;49.804;24.072;2022-07-17T12:52:08;1.50;;;0.70;;
35877;SDS011;21982;49.804;24.072;2022-07-17T12:54:34;2.47;;;0.70;;
35877;SDS011;21982;49.804;24.072;2022-07-17T12:56:59;2.38;;;0.65;;
35877;SDS011;21982;49.804;24.072;2022-07-17T12:59:25;1.35;;;0.63;;
35877;SDS011;21982;49.804;24.072;2022-07-17T13:01:50;0.90;;;0.45;;
35877;SDS011;21982;49.804;24.072;2022-07-17T13:04:16;1.23;;;0.60;;
35877;SDS011;21982;49.804;24.072;2022-07-17T13:06:42;1.52;;;1.15;;
35877;SDS011;21982;49.804;24.072;2022-07-17T13:09:07;1.67;;;0.70;;
35877;SDS011;21982;49.804;24.072;2022-07-17T13:11:33;3.83;;;0.73;;
35877;SDS011;21982;49.804;24.072;2022-07-17T13:13:59;2.75;;;0.60;;
35877;SDS011;21982;49.804;24.072;2022-07-17T13:16:29;2.50;;;0.90;;
35877;SDS011;21982;49.804;24.072;2022-07-17T13:18:57;1.92;;;0.60;;
35877;SDS011;21982;49.804;24.072;2022-07-17T13:27:17;5.10;;;1.33;;
35877;SDS011;21982;49.804;24.072;2022-07-17T13:29:42;2.25;;;0.90;;
35877;SDS011;21982;49.804;24.072;2022-07-17T13:32:11;2.95;;;0.70;;
35877;SDS011;21982;49.804;24.072;2022-07-17T13:34:36;1.85;;;0.93;;
35877;SDS011;21982;49.804;24.072;2022-07-17T13:37:05;2.38;;;0.82;;
35877;SDS011;21982;49.804;24.072;2022-07-17T13:39:34;1.77;;;0.60;;
35877;SDS011;21982;49.804;24.072;2022-07-17T13:42:00;3.00;;;0.93;;
35877;SDS011;21982;49.804;24.072;2022-07-17T13:44:26;1.92;;;0.82;;
35877;SDS011;21982;49.804;24.072;2022-07-17T13:46:52;2.78;;;0.80;;
35877;SDS011;21982;49.804;24.072;2022-07-17T13:49:20;1.90;;;0.63;;
35877;SDS011;21982;49.804;24.072;2022-07-17T13:51:49;1.42;;;0.60;;
35877;SDS011;21982;49.804;24.072;2022-07-17T13:54:14;4.30;;;0.70;;
35877;SDS011;21982;49.804;24.072;2022-07-17T13:56:40;1.10;;;0.70;;
35877;SDS011;21982;49.804;24.072;2022-07-17T14:07:02;2.60;;;0.80;;
35877;SDS011;21982;49.804;24.072;2022-07-17T14:09:27;3.50;;;0.63;;
35877;SDS011;21982;49.804;24.072;2022-07-17T14:11:53;6.45;;;1.00;;
35877;SDS011;21982;49.804;24.072;2022-07-17T14:14:19;1.88;;;1.40;;
35877;SDS011;21982;49.804;24.072;2022-07-17T14:16:45;1.77;;;0.55;;
35877;SDS011;21982;49.804;24.072;2022-07-17T14:19:10;2.20;;;0.75;;
35877;SDS011;21982;49.804;24.072;2022-07-17T14:21:36;5.60;;;1.00;;
35877;SDS011;21982;49.804;24.072;2022-07-17T14:24:03;2.45;;;0.88;;
35877;SDS011;21982;49.804;24.072;2022-07-17T14:26:31;3.30;;;1.00;;
35877;SDS011;21982;49.804;24.072;2022-07-17T14:28:57;5.32;;;0.90;;
35877;SDS011;21982;49.804;24.072;2022-07-17T14:31:23;1.77;;;1.13;;
35877;SDS011;21982;49.804;24.072;2022-07-17T14:33:48;6.18;;;1.25;;
35877;SDS011;21982;49.804;24.072;2022-07-17T14:36:14;1.88;;;0.75;;
35877;SDS011;21982;49.804;24.072;2022-07-17T14:38:39;4.47;;;1.20;;
35877;SDS011;21982;49.804;24.072;2022-07-17T14:41:07;4.13;;;0.85;;
35877;SDS011;21982;49.804;24.072;2022-07-17T14:43:36;1.73;;;0.77;;
35877;SDS011;21982;49.804;24.072;2022-07-17T14:46:01;4.20;;;0.80;;
35877;SDS011;21982;49.804;24.072;2022-07-17T14:48:27;1.50;;;0.90;;
35877;SDS011;21982;49.804;24.072;2022-07-17T14:50:52;2.17;;;1.00;;
35877;SDS011;21982;49.804;24.072;2022-07-17T14:53:18;1.45;;;0.90;;
35877;SDS011;21982;49.804;24.072;2022-07-17T14:55:44;1.50;;;0.82;;
35877;SDS011;21982;49.804;24.072;2022-07-17T14:58:09;1.05;;;0.68;;
35877;SDS011;21982;49.804;24.072;2022-07-17T15:00:35;1.60;;;0.47;;
35877;SDS011;21982;49.804;24.072;2022-07-17T15:03:00;3.38;;;0.82;;
35877;SDS011;21982;49.804;24.072;2022-07-17T15:05:26;1.85;;;0.52;;
35877;SDS011;21982;49.804;24.072;2022-07-17T15:07:54;1.52;;;0.65;;
35877;SDS011;21982;49.804;24.072;2022-07-17T15:10:24;1.25;;;0.65;;
35877;SDS011;21982;49.804;24.072;2022-07-17T15:16:20;2.25;;;0.63;;
35877;SDS011;21982;49.804;24.072;2022-07-17T15:18:46;1.98;;;0.60;;
35877;SDS011;21982;49.804;24.072;2022-07-17T15:21:12;3.55;;;0.80;;